sensor_id;sensor_type;location;lat;lon;timestamp;P1;durP1;ratioP1;P2;durP2;ratioP2
15595;SDS011;7898;48.658;9.068;2023-02-15T00:01:58;35.40;;;19.53;;
15595;SDS011;7898;48.658;9.068;2023-02-15T00:04:25;31.97;;;19.03;;
15595;SDS011;7898;48.658;9.068;2023-02-15T00:07:11;32.40;;;17.40;;
15595;SDS011;7898;48.658;9.068;2023-02-15T00:09:39;34.57;;;17.93;;
15595;SDS011;7898;48.658;9.068;2023-02-15T00:12:06;28.40;;;15.90;;
15595;SDS011;7898;48.658;9.068;2023-02-15T00:14:34;35.47;;;18.40;;
15595;SDS011;7898;48.658;9.068;2023-02-15T00:17:01;33.67;;;17.70;;
15595;SDS011;7898;48.658;9.068;2023-02-15T00:19:28;34.33;;;19.00;;
15595;SDS011;7898;48.658;9.068;2023-02-15T00:21:55;33.13;;;18.53;;
15595;SDS011;7898;48.658;9.068;2023-02-15T00:24:22;31.13;;;18.17;;
15595;SDS011;7898;48.658;9.068;2023-02-15T00:26:49;30.10;;;16.97;;
15595;SDS011;7898;48.658;9.068;2023-02-15T00:29:16;31.10;;;17.10;;
15595;SDS011;7898;48.658;9.068;2023-02-15T00:31:46;29.00;;;17.27;;
15595;SDS011;7898;48.658;9.068;2023-02-15T00:34:14;32.47;;;17.07;;
15595;SDS011;7898;48.658;9.068;2023-02-15T00:36:43;31.80;;;17.27;;
15595;SDS011;7898;48.658;9.068;2023-02-15T00:39:10;28.50;;;16.07;;
15595;SDS011;7898;48.658;9.068;2023-02-15T00:41:37;34.30;;;16.27;;
15595;SDS011;7898;48.658;9.068;2023-02-15T00:44:04;31.47;;;16.57;;
15595;SDS011;7898;48.658;9.068;2023-02-15T00:46:32;33.40;;;18.00;;
15595;SDS011;7898;48.658;9.068;2023-02-15T00:49:00;31.43;;;17.27;;
15595;SDS011;7898;48.658;9.068;2023-02-15T00:51:28;31.43;;;17.20;;
15595;SDS011;7898;48.658;9.068;2023-02-15T00:53:56;30.77;;;17.23;;
15595;SDS011;7898;48.658;9.068;2023-02-15T00:56:23;31.27;;;17.37;;
15595;SDS011;7898;48.658;9.068;2023-02-15T00:58:53;33.43;;;18.70;;
15595;SDS011;7898;48.658;9.068;2023-02-15T01:01:20;30.40;;;16.93;;
15595;SDS011;7898;48.658;9.068;2023-02-15T01:03:48;28.87;;;16.30;;
15595;SDS011;7898;48.658;9.068;2023-02-15T01:06:17;29.80;;;15.57;;
15595;SDS011;7898;48.658;9.068;2023-02-15T01:08:44;28.90;;;16.37;;
15595;SDS011;7898;48.658;9.068;2023-02-15T01:11:13;32.43;;;16.47;;
15595;SDS011;7898;48.658;9.068;2023-02-15T01:13:46;25.93;;;15.80;;
15595;SDS011;7898;48.658;9.068;2023-02-15T01:16:13;31.80;;;17.27;;
15595;SDS011;7898;48.658;9.068;2023-02-15T01:18:40;31.93;;;16.40;;
15595;SDS011;7898;48.658;9.068;2023-02-15T01:21:11;32.13;;;17.23;;
15595;SDS011;7898;48.658;9.068;2023-02-15T01:23:40;36.10;;;18.00;;
15595;SDS011;7898;48.658;9.068;2023-02-15T01:26:07;29.87;;;16.10;;
15595;SDS011;7898;48.658;9.068;2023-02-15T01:28:34;31.27;;;16.43;;
15595;SDS011;7898;48.658;9.068;2023-02-15T01:31:04;30.13;;;16.30;;
15595;SDS011;7898;48.658;9.068;2023-02-15T01:33:32;31.07;;;16.27;;
15595;SDS011;7898;48.658;9.068;2023-02-15T01:36:00;34.03;;;17.07;;
15595;SDS011;7898;48.658;9.068;2023-02-15T01:38:28;33.50;;;17.50;;
15595;SDS011;7898;48.658;9.068;2023-02-15T01:40:56;31.83;;;17.23;;
15595;SDS011;7898;48.658;9.068;2023-02-15T01:43:44;30.50;;;17.87;;
15595;SDS011;7898;48.658;9.068;2023-02-15T01:46:13;30.50;;;17.47;;
15595;SDS011;7898;48.658;9.068;2023-02-15T01:48:43;31.33;;;16.73;;
15595;SDS011;7898;48.658;9.068;2023-02-15T01:51:12;34.97;;;18.50;;
15595;SDS011;7898;48.658;9.068;2023-02-15T01:53:40;29.03;;;17.37;;
15595;SDS011;7898;48.658;9.068;2023-02-15T01:56:15;31.17;;;17.60;;
15595;SDS011;7898;48.658;9.068;2023-02-15T01:58:45;32.00;;;17.53;;
15595;SDS011;7898;48.658;9.068;2023-02-15T02:01:14;35.33;;;18.00;;
15595;SDS011;7898;48.658;9.068;2023-02-15T02:03:49;35.60;;;18.30;;
15595;SDS011;7898;48.658;9.068;2023-02-15T02:06:23;32.10;;;16.63;;
15595;SDS011;7898;48.658;9.068;2023-02-15T02:08:52;29.37;;;17.87;;
15595;SDS011;7898;48.658;9.068;2023-02-15T02:11:21;40.07;;;18.30;;
15595;SDS011;7898;48.658;9.068;2023-02-15T02:13:48;39.80;;;18.00;;
15595;SDS011;7898;48.658;9.068;2023-02-15T02:16:19;31.37;;;16.33;;
15595;SDS011;7898;48.658;9.068;2023-02-15T02:18:54;28.97;;;15.83;;
15595;SDS011;7898;48.658;9.068;2023-02-15T02:21:33;28.03;;;16.53;;
15595;SDS011;7898;48.658;9.068;2023-02-15T02:24:23;30.10;;;16.73;;
15595;SDS011;7898;48.658;9.068;2023-02-15T02:33:19;30.83;;;16.87;;
15595;SDS011;7898;48.658;9.068;2023-02-15T02:36:13;30.67;;;15.67;;
15595;SDS011;7898;48.658;9.068;2023-02-15T02:38:53;39.57;;;18.30;;
15595;SDS011;7898;48.658;9.068;2023-02-15T02:41:32;29.73;;;16.37;;
15595;SDS011;7898;48.658;9.068;2023-02-15T02:44:07;31.53;;;16.10;;
15595;SDS011;7898;48.658;9.068;2023-02-15T02:46:51;30.70;;;17.50;;
15595;SDS011;7898;48.658;9.068;2023-02-15T02:49:32;26.17;;;15.93;;
15595;SDS011;7898;48.658;9.068;2023-02-15T02:52:00;27.47;;;16.17;;
15595;SDS011;7898;48.658;9.068;2023-02-15T02:54:28;31.23;;;17.13;;
15595;SDS011;7898;48.658;9.068;2023-02-15T02:56:56;30.30;;;16.70;;
15595;SDS011;7898;48.658;9.068;2023-02-15T02:59:30;33.20;;;17.87;;
15595;SDS011;7898;48.658;9.068;2023-02-15T03:02:01;29.40;;;16.47;;
15595;SDS011;7898;48.658;9.068;2023-02-15T03:04:39;27.57;;;16.10;;
15595;SDS011;7898;48.658;9.068;2023-02-15T03:07:10;32.27;;;17.00;;
15595;SDS011;7898;48.658;9.068;2023-02-15T03:09:41;34.53;;;18.07;;
15595;SDS011;7898;48.658;9.068;2023-02-15T03:12:10;31.13;;;16.87;;
15595;SDS011;7898;48.658;9.068;2023-02-15T03:14:39;34.43;;;18.40;;
15595;SDS011;7898;48.658;9.068;2023-02-15T03:17:09;35.97;;;16.93;;
15595;SDS011;7898;48.658;9.068;2023-02-15T03:19:39;28.03;;;16.63;;
15595;SDS011;7898;48.658;9.068;2023-02-15T03:22:10;26.70;;;16.63;;
15595;SDS011;7898;48.658;9.068;2023-02-15T03:24:41;33.87;;;17.10;;
15595;SDS011;7898;48.658;9.068;2023-02-15T03:27:14;28.83;;;16.17;;
15595;SDS011;7898;48.658;9.068;2023-02-15T03:29:43;31.00;;;16.23;;
15595;SDS011;7898;48.658;9.068;2023-02-15T03:32:12;29.23;;;17.10;;
15595;SDS011;7898;48.658;9.068;2023-02-15T03:34:42;28.87;;;15.47;;
15595;SDS011;7898;48.658;9.068;2023-02-15T03:37:10;27.13;;;15.13;;
15595;SDS011;7898;48.658;9.068;2023-02-15T03:39:44;27.10;;;15.50;;
15595;SDS011;7898;48.658;9.068;2023-02-15T03:42:17;27.80;;;15.90;;
15595;SDS011;7898;48.658;9.068;2023-02-15T03:44:50;30.23;;;14.93;;
15595;SDS011;7898;48.658;9.068;2023-02-15T03:47:20;32.20;;;16.27;;
15595;SDS011;7898;48.658;9.068;2023-02-15T03:49:53;30.17;;;16.10;;
15595;SDS011;7898;48.658;9.068;2023-02-15T03:52:25;34.47;;;16.77;;
15595;SDS011;7898;48.658;9.068;2023-02-15T03:54:54;30.57;;;16.20;;
15595;SDS011;7898;48.658;9.068;2023-02-15T03:57:22;32.33;;;15.97;;
15595;SDS011;7898;48.658;9.068;2023-02-15T04:00:11;32.23;;;16.83;;
15595;SDS011;7898;48.658;9.068;2023-02-15T04:03:01;28.97;;;16.43;;
15595;SDS011;7898;48.658;9.068;2023-02-15T04:05:39;34.10;;;17.40;;
15595;SDS011;7898;48.658;9.068;2023-02-15T04:08:06;31.97;;;18.40;;
15595;SDS011;7898;48.658;9.068;2023-02-15T04:10:34;34.37;;;17.10;;
15595;SDS011;7898;48.658;9.068;2023-02-15T04:13:18;29.87;;;16.20;;
15595;SDS011;7898;48.658;9.068;2023-02-15T04:15:45;28.30;;;16.70;;
15595;SDS011;7898;48.658;9.068;2023-02-15T04:18:32;27.23;;;15.43;;
15595;SDS011;7898;48.658;9.068;2023-02-15T04:21:20;26.83;;;16.03;;
15595;SDS011;7898;48.658;9.068;2023-02-15T04:24:05;28.87;;;15.90;;
15595;SDS011;7898;48.658;9.068;2023-02-15T04:26:50;32.93;;;17.50;;
15595;SDS011;7898;48.658;9.068;2023-02-15T04:29:17;30.30;;;16.77;;
15595;SDS011;7898;48.658;9.068;2023-02-15T04:31:45;33.73;;;17.40;;
15595;SDS011;7898;48.658;9.068;2023-02-15T04:34:12;29.77;;;15.87;;
15595;SDS011;7898;48.658;9.068;2023-02-15T04:36:40;30.37;;;16.50;;
15595;SDS011;7898;48.658;9.068;2023-02-15T04:39:08;34.83;;;17.43;;
15595;SDS011;7898;48.658;9.068;2023-02-15T04:41:35;33.37;;;17.00;;
15595;SDS011;7898;48.658;9.068;2023-02-15T04:44:02;30.57;;;17.03;;
15595;SDS011;7898;48.658;9.068;2023-02-15T04:46:29;32.43;;;16.87;;
15595;SDS011;7898;48.658;9.068;2023-02-15T04:48:56;28.10;;;16.20;;
15595;SDS011;7898;48.658;9.068;2023-02-15T04:51:23;27.87;;;15.80;;
15595;SDS011;7898;48.658;9.068;2023-02-15T04:53:52;32.80;;;17.03;;
15595;SDS011;7898;48.658;9.068;2023-02-15T04:56:19;31.23;;;15.43;;
15595;SDS011;7898;48.658;9.068;2023-02-15T04:58:46;31.73;;;16.47;;
15595;SDS011;7898;48.658;9.068;2023-02-15T05:01:13;31.87;;;17.47;;
15595;SDS011;7898;48.658;9.068;2023-02-15T05:03:40;35.13;;;17.30;;
15595;SDS011;7898;48.658;9.068;2023-02-15T05:06:07;36.93;;;18.63;;
15595;SDS011;7898;48.658;9.068;2023-02-15T05:08:34;32.83;;;16.37;;
15595;SDS011;7898;48.658;9.068;2023-02-15T05:11:02;35.57;;;17.73;;
15595;SDS011;7898;48.658;9.068;2023-02-15T05:13:29;35.13;;;18.40;;
15595;SDS011;7898;48.658;9.068;2023-02-15T05:15:56;36.57;;;18.13;;
15595;SDS011;7898;48.658;9.068;2023-02-15T05:18:22;33.20;;;18.03;;
15595;SDS011;7898;48.658;9.068;2023-02-15T05:20:49;35.20;;;18.63;;
15595;SDS011;7898;48.658;9.068;2023-02-15T05:23:16;39.43;;;20.60;;
15595;SDS011;7898;48.658;9.068;2023-02-15T05:25:46;40.00;;;20.17;;
15595;SDS011;7898;48.658;9.068;2023-02-15T05:28:33;41.90;;;18.10;;
15595;SDS011;7898;48.658;9.068;2023-02-15T05:31:04;34.87;;;17.00;;
15595;SDS011;7898;48.658;9.068;2023-02-15T05:33:33;45.73;;;21.27;;
15595;SDS011;7898;48.658;9.068;2023-02-15T05:36:00;39.80;;;20.80;;
15595;SDS011;7898;48.658;9.068;2023-02-15T05:38:27;40.73;;;18.90;;
15595;SDS011;7898;48.658;9.068;2023-02-15T05:40:55;43.97;;;20.47;;
15595;SDS011;7898;48.658;9.068;2023-02-15T05:43:22;41.23;;;21.00;;
15595;SDS011;7898;48.658;9.068;2023-02-15T05:45:52;33.00;;;17.73;;
15595;SDS011;7898;48.658;9.068;2023-02-15T05:48:21;35.27;;;18.20;;
15595;SDS011;7898;48.658;9.068;2023-02-15T05:50:56;32.47;;;16.73;;
15595;SDS011;7898;48.658;9.068;2023-02-15T05:53:24;30.73;;;17.80;;
15595;SDS011;7898;48.658;9.068;2023-02-15T05:55:51;37.03;;;17.20;;
15595;SDS011;7898;48.658;9.068;2023-02-15T05:58:18;31.87;;;16.93;;
15595;SDS011;7898;48.658;9.068;2023-02-15T06:00:45;28.90;;;16.73;;
15595;SDS011;7898;48.658;9.068;2023-02-15T06:03:13;40.10;;;18.23;;
15595;SDS011;7898;48.658;9.068;2023-02-15T06:05:40;35.23;;;18.20;;
15595;SDS011;7898;48.658;9.068;2023-02-15T06:08:07;34.40;;;18.33;;
15595;SDS011;7898;48.658;9.068;2023-02-15T06:10:34;35.07;;;19.47;;
15595;SDS011;7898;48.658;9.068;2023-02-15T06:13:01;33.40;;;17.50;;
15595;SDS011;7898;48.658;9.068;2023-02-15T06:15:28;33.13;;;18.07;;
15595;SDS011;7898;48.658;9.068;2023-02-15T06:17:56;29.77;;;16.70;;
15595;SDS011;7898;48.658;9.068;2023-02-15T06:20:24;29.97;;;16.97;;
15595;SDS011;7898;48.658;9.068;2023-02-15T06:22:51;33.17;;;18.80;;
15595;SDS011;7898;48.658;9.068;2023-02-15T06:25:18;67.13;;;32.23;;
15595;SDS011;7898;48.658;9.068;2023-02-15T06:27:45;203.40;;;87.73;;
15595;SDS011;7898;48.658;9.068;2023-02-15T06:30:12;69.40;;;34.70;;
15595;SDS011;7898;48.658;9.068;2023-02-15T06:32:39;45.30;;;24.40;;
15595;SDS011;7898;48.658;9.068;2023-02-15T06:35:06;40.00;;;21.90;;
15595;SDS011;7898;48.658;9.068;2023-02-15T06:37:35;39.00;;;21.07;;
15595;SDS011;7898;48.658;9.068;2023-02-15T06:40:02;35.37;;;19.43;;
15595;SDS011;7898;48.658;9.068;2023-02-15T06:42:29;34.60;;;18.73;;
15595;SDS011;7898;48.658;9.068;2023-02-15T06:44:56;33.57;;;17.50;;
15595;SDS011;7898;48.658;9.068;2023-02-15T06:47:25;32.47;;;17.50;;
15595;SDS011;7898;48.658;9.068;2023-02-15T06:49:52;30.60;;;17.23;;
15595;SDS011;7898;48.658;9.068;2023-02-15T06:52:18;28.63;;;15.70;;
15595;SDS011;7898;48.658;9.068;2023-02-15T06:54:47;27.43;;;15.43;;
15595;SDS011;7898;48.658;9.068;2023-02-15T06:57:14;27.47;;;15.93;;
15595;SDS011;7898;48.658;9.068;2023-02-15T06:59:40;29.97;;;17.00;;
15595;SDS011;7898;48.658;9.068;2023-02-15T07:02:08;30.10;;;16.63;;
15595;SDS011;7898;48.658;9.068;2023-02-15T07:04:35;29.47;;;17.27;;
15595;SDS011;7898;48.658;9.068;2023-02-15T07:07:02;28.27;;;17.17;;
15595;SDS011;7898;48.658;9.068;2023-02-15T07:09:29;29.87;;;17.37;;
15595;SDS011;7898;48.658;9.068;2023-02-15T07:11:57;28.07;;;18.67;;
15595;SDS011;7898;48.658;9.068;2023-02-15T07:14:41;27.57;;;17.50;;
15595;SDS011;7898;48.658;9.068;2023-02-15T07:17:08;30.10;;;18.03;;
15595;SDS011;7898;48.658;9.068;2023-02-15T07:19:35;28.97;;;17.93;;
15595;SDS011;7898;48.658;9.068;2023-02-15T07:22:02;26.60;;;18.70;;
15595;SDS011;7898;48.658;9.068;2023-02-15T07:24:30;28.03;;;18.00;;
15595;SDS011;7898;48.658;9.068;2023-02-15T07:26:59;25.47;;;16.60;;
15595;SDS011;7898;48.658;9.068;2023-02-15T07:29:25;24.67;;;15.57;;
15595;SDS011;7898;48.658;9.068;2023-02-15T07:31:52;27.20;;;18.30;;
15595;SDS011;7898;48.658;9.068;2023-02-15T07:34:19;24.77;;;17.80;;
15595;SDS011;7898;48.658;9.068;2023-02-15T07:36:46;28.23;;;17.77;;
15595;SDS011;7898;48.658;9.068;2023-02-15T07:39:16;29.77;;;20.50;;
15595;SDS011;7898;48.658;9.068;2023-02-15T07:41:43;28.87;;;19.07;;
15595;SDS011;7898;48.658;9.068;2023-02-15T07:44:12;29.97;;;19.17;;
15595;SDS011;7898;48.658;9.068;2023-02-15T07:46:40;26.50;;;18.07;;
15595;SDS011;7898;48.658;9.068;2023-02-15T07:49:07;24.17;;;17.47;;
15595;SDS011;7898;48.658;9.068;2023-02-15T07:51:34;25.90;;;19.43;;
15595;SDS011;7898;48.658;9.068;2023-02-15T07:54:01;29.43;;;20.00;;
15595;SDS011;7898;48.658;9.068;2023-02-15T07:56:28;26.10;;;19.03;;
15595;SDS011;7898;48.658;9.068;2023-02-15T07:58:54;25.70;;;19.67;;
15595;SDS011;7898;48.658;9.068;2023-02-15T08:01:25;26.70;;;18.98;;
15595;SDS011;7898;48.658;9.068;2023-02-15T08:03:53;25.85;;;19.65;;
15595;SDS011;7898;48.658;9.068;2023-02-15T08:06:21;25.95;;;19.55;;
15595;SDS011;7898;48.658;9.068;2023-02-15T08:08:49;25.83;;;19.42;;
15595;SDS011;7898;48.658;9.068;2023-02-15T08:11:17;22.95;;;18.05;;
15595;SDS011;7898;48.658;9.068;2023-02-15T08:13:51;24.17;;;18.85;;
15595;SDS011;7898;48.658;9.068;2023-02-15T08:16:23;22.63;;;18.73;;
15595;SDS011;7898;48.658;9.068;2023-02-15T08:18:56;23.98;;;19.20;;
15595;SDS011;7898;48.658;9.068;2023-02-15T08:21:25;25.92;;;19.73;;
15595;SDS011;7898;48.658;9.068;2023-02-15T08:23:54;25.98;;;18.33;;
15595;SDS011;7898;48.658;9.068;2023-02-15T08:26:21;24.23;;;19.02;;
15595;SDS011;7898;48.658;9.068;2023-02-15T08:28:48;24.48;;;19.27;;
15595;SDS011;7898;48.658;9.068;2023-02-15T08:31:15;28.20;;;19.27;;
15595;SDS011;7898;48.658;9.068;2023-02-15T08:33:44;25.83;;;18.20;;
15595;SDS011;7898;48.658;9.068;2023-02-15T08:36:13;21.60;;;17.65;;
15595;SDS011;7898;48.658;9.068;2023-02-15T08:38:42;23.08;;;16.98;;
15595;SDS011;7898;48.658;9.068;2023-02-15T08:41:10;19.80;;;16.67;;
15595;SDS011;7898;48.658;9.068;2023-02-15T08:43:38;21.85;;;17.17;;
15595;SDS011;7898;48.658;9.068;2023-02-15T08:46:05;26.25;;;17.40;;
15595;SDS011;7898;48.658;9.068;2023-02-15T08:48:32;22.98;;;17.42;;
15595;SDS011;7898;48.658;9.068;2023-02-15T08:51:05;19.88;;;15.77;;
15595;SDS011;7898;48.658;9.068;2023-02-15T08:53:35;21.60;;;17.70;;
15595;SDS011;7898;48.658;9.068;2023-02-15T08:56:02;21.48;;;17.40;;
15595;SDS011;7898;48.658;9.068;2023-02-15T08:58:30;20.50;;;15.88;;
15595;SDS011;7898;48.658;9.068;2023-02-15T09:00:57;19.63;;;16.38;;
15595;SDS011;7898;48.658;9.068;2023-02-15T09:03:24;20.70;;;16.77;;
15595;SDS011;7898;48.658;9.068;2023-02-15T09:05:57;19.00;;;15.75;;
15595;SDS011;7898;48.658;9.068;2023-02-15T09:08:26;21.70;;;15.68;;
15595;SDS011;7898;48.658;9.068;2023-02-15T09:10:54;15.05;;;13.15;;
15595;SDS011;7898;48.658;9.068;2023-02-15T09:13:31;19.40;;;15.38;;
15595;SDS011;7898;48.658;9.068;2023-02-15T09:15:59;20.15;;;14.82;;
15595;SDS011;7898;48.658;9.068;2023-02-15T09:18:26;17.83;;;15.10;;
15595;SDS011;7898;48.658;9.068;2023-02-15T09:21:03;19.75;;;15.82;;
15595;SDS011;7898;48.658;9.068;2023-02-15T09:23:32;22.10;;;15.90;;
15595;SDS011;7898;48.658;9.068;2023-02-15T09:26:03;21.58;;;15.85;;
15595;SDS011;7898;48.658;9.068;2023-02-15T09:28:31;18.63;;;15.15;;
15595;SDS011;7898;48.658;9.068;2023-02-15T09:31:04;20.65;;;15.10;;
15595;SDS011;7898;48.658;9.068;2023-02-15T09:33:32;18.63;;;13.88;;
15595;SDS011;7898;48.658;9.068;2023-02-15T09:36:01;18.42;;;13.95;;
15595;SDS011;7898;48.658;9.068;2023-02-15T09:38:28;18.77;;;13.10;;
15595;SDS011;7898;48.658;9.068;2023-02-15T09:40:58;18.95;;;12.90;;
15595;SDS011;7898;48.658;9.068;2023-02-15T09:43:39;16.60;;;13.00;;
15595;SDS011;7898;48.658;9.068;2023-02-15T09:46:25;17.05;;;12.60;;
15595;SDS011;7898;48.658;9.068;2023-02-15T09:49:06;15.27;;;11.82;;
15595;SDS011;7898;48.658;9.068;2023-02-15T09:51:45;15.90;;;11.90;;
15595;SDS011;7898;48.658;9.068;2023-02-15T09:54:39;16.27;;;11.95;;
15595;SDS011;7898;48.658;9.068;2023-02-15T09:57:20;15.35;;;11.20;;
15595;SDS011;7898;48.658;9.068;2023-02-15T09:59:56;16.48;;;11.82;;
15595;SDS011;7898;48.658;9.068;2023-02-15T10:02:38;15.95;;;11.18;;
15595;SDS011;7898;48.658;9.068;2023-02-15T10:05:21;14.93;;;11.32;;
15595;SDS011;7898;48.658;9.068;2023-02-15T10:08:08;15.65;;;11.18;;
15595;SDS011;7898;48.658;9.068;2023-02-15T10:10:50;15.57;;;11.63;;
15595;SDS011;7898;48.658;9.068;2023-02-15T10:13:46;14.50;;;10.40;;
15595;SDS011;7898;48.658;9.068;2023-02-15T10:16:19;15.45;;;10.80;;
15595;SDS011;7898;48.658;9.068;2023-02-15T10:18:55;17.10;;;10.20;;
15595;SDS011;7898;48.658;9.068;2023-02-15T10:21:34;13.98;;;10.20;;
15595;SDS011;7898;48.658;9.068;2023-02-15T10:24:16;13.45;;;9.32;;
15595;SDS011;7898;48.658;9.068;2023-02-15T10:26:54;11.75;;;9.30;;
15595;SDS011;7898;48.658;9.068;2023-02-15T10:29:29;12.90;;;9.88;;
15595;SDS011;7898;48.658;9.068;2023-02-15T10:32:03;14.27;;;9.15;;
15595;SDS011;7898;48.658;9.068;2023-02-15T10:34:41;12.88;;;9.65;;
15595;SDS011;7898;48.658;9.068;2023-02-15T10:40:21;12.18;;;9.30;;
15595;SDS011;7898;48.658;9.068;2023-02-15T10:43:01;15.85;;;9.38;;
15595;SDS011;7898;48.658;9.068;2023-02-15T10:45:49;12.25;;;8.63;;
15595;SDS011;7898;48.658;9.068;2023-02-15T10:51:30;15.18;;;9.55;;
15595;SDS011;7898;48.658;9.068;2023-02-15T10:54:09;13.32;;;10.25;;
15595;SDS011;7898;48.658;9.068;2023-02-15T10:56:49;11.90;;;8.57;;
15595;SDS011;7898;48.658;9.068;2023-02-15T10:59:30;14.18;;;9.55;;
15595;SDS011;7898;48.658;9.068;2023-02-15T11:02:10;11.70;;;8.68;;
15595;SDS011;7898;48.658;9.068;2023-02-15T11:04:58;12.40;;;8.30;;
15595;SDS011;7898;48.658;9.068;2023-02-15T11:07:35;11.50;;;8.52;;
15595;SDS011;7898;48.658;9.068;2023-02-15T11:10:24;10.88;;;8.68;;
15595;SDS011;7898;48.658;9.068;2023-02-15T11:12:56;13.93;;;9.23;;
15595;SDS011;7898;48.658;9.068;2023-02-15T11:15:26;11.48;;;7.97;;
15595;SDS011;7898;48.658;9.068;2023-02-15T11:18:02;11.68;;;8.60;;
15595;SDS011;7898;48.658;9.068;2023-02-15T11:20:36;12.07;;;8.65;;
15595;SDS011;7898;48.658;9.068;2023-02-15T11:23:10;11.43;;;8.80;;
15595;SDS011;7898;48.658;9.068;2023-02-15T11:25:41;13.48;;;8.75;;
15595;SDS011;7898;48.658;9.068;2023-02-15T11:28:13;13.05;;;8.55;;
15595;SDS011;7898;48.658;9.068;2023-02-15T11:30:46;12.35;;;8.68;;
15595;SDS011;7898;48.658;9.068;2023-02-15T11:33:19;14.32;;;9.25;;
15595;SDS011;7898;48.658;9.068;2023-02-15T11:35:52;10.48;;;8.52;;
15595;SDS011;7898;48.658;9.068;2023-02-15T11:38:26;12.32;;;7.72;;
15595;SDS011;7898;48.658;9.068;2023-02-15T11:40:56;13.45;;;8.07;;
15595;SDS011;7898;48.658;9.068;2023-02-15T11:43:28;11.73;;;8.13;;
15595;SDS011;7898;48.658;9.068;2023-02-15T11:46:00;11.45;;;8.35;;
15595;SDS011;7898;48.658;9.068;2023-02-15T11:48:29;11.15;;;7.57;;
15595;SDS011;7898;48.658;9.068;2023-02-15T11:50:57;9.30;;;7.20;;
15595;SDS011;7898;48.658;9.068;2023-02-15T11:53:25;14.02;;;7.93;;
15595;SDS011;7898;48.658;9.068;2023-02-15T11:55:56;10.75;;;7.57;;
15595;SDS011;7898;48.658;9.068;2023-02-15T11:58:26;13.32;;;7.15;;
15595;SDS011;7898;48.658;9.068;2023-02-15T12:00:58;14.13;;;7.18;;
15595;SDS011;7898;48.658;9.068;2023-02-15T12:03:33;8.85;;;6.65;;
15595;SDS011;7898;48.658;9.068;2023-02-15T12:06:12;8.63;;;7.40;;
15595;SDS011;7898;48.658;9.068;2023-02-15T12:08:43;12.98;;;7.20;;
15595;SDS011;7898;48.658;9.068;2023-02-15T12:11:17;11.80;;;7.55;;
15595;SDS011;7898;48.658;9.068;2023-02-15T12:13:55;11.25;;;7.40;;
15595;SDS011;7898;48.658;9.068;2023-02-15T12:16:23;9.60;;;7.20;;
15595;SDS011;7898;48.658;9.068;2023-02-15T12:18:53;9.73;;;7.82;;
15595;SDS011;7898;48.658;9.068;2023-02-15T12:21:25;17.55;;;7.47;;
15595;SDS011;7898;48.658;9.068;2023-02-15T12:23:55;11.02;;;6.63;;
15595;SDS011;7898;48.658;9.068;2023-02-15T12:26:23;12.18;;;6.90;;
15595;SDS011;7898;48.658;9.068;2023-02-15T12:28:51;8.73;;;6.45;;
15595;SDS011;7898;48.658;9.068;2023-02-15T12:31:24;9.35;;;6.68;;
15595;SDS011;7898;48.658;9.068;2023-02-15T12:33:56;8.27;;;5.70;;
15595;SDS011;7898;48.658;9.068;2023-02-15T12:36:29;7.07;;;5.05;;
15595;SDS011;7898;48.658;9.068;2023-02-15T12:41:57;5.88;;;4.78;;
15595;SDS011;7898;48.658;9.068;2023-02-15T12:44:27;8.55;;;4.22;;
15595;SDS011;7898;48.658;9.068;2023-02-15T12:46:56;5.07;;;4.20;;
15595;SDS011;7898;48.658;9.068;2023-02-15T12:49:26;7.05;;;4.40;;
15595;SDS011;7898;48.658;9.068;2023-02-15T12:51:54;5.32;;;3.60;;
15595;SDS011;7898;48.658;9.068;2023-02-15T12:54:31;5.88;;;4.00;;
15595;SDS011;7898;48.658;9.068;2023-02-15T12:57:12;7.32;;;6.55;;
15595;SDS011;7898;48.658;9.068;2023-02-15T12:59:47;12.13;;;8.80;;
15595;SDS011;7898;48.658;9.068;2023-02-15T13:02:20;10.88;;;9.38;;
15595;SDS011;7898;48.658;9.068;2023-02-15T13:05:03;18.10;;;12.13;;
15595;SDS011;7898;48.658;9.068;2023-02-15T13:07:43;14.93;;;11.10;;
15595;SDS011;7898;48.658;9.068;2023-02-15T13:10:18;14.35;;;11.65;;
15595;SDS011;7898;48.658;9.068;2023-02-15T13:12:50;16.40;;;10.73;;
15595;SDS011;7898;48.658;9.068;2023-02-15T13:15:26;14.80;;;11.25;;
15595;SDS011;7898;48.658;9.068;2023-02-15T13:17:57;20.23;;;11.15;;
15595;SDS011;7898;48.658;9.068;2023-02-15T13:20:26;17.20;;;11.05;;
15595;SDS011;7898;48.658;9.068;2023-02-15T13:22:56;16.90;;;11.45;;
15595;SDS011;7898;48.658;9.068;2023-02-15T13:25:27;15.50;;;11.40;;
15595;SDS011;7898;48.658;9.068;2023-02-15T13:28:00;23.23;;;11.65;;
15595;SDS011;7898;48.658;9.068;2023-02-15T13:30:30;16.05;;;10.32;;
15595;SDS011;7898;48.658;9.068;2023-02-15T13:33:01;17.17;;;11.38;;
15595;SDS011;7898;48.658;9.068;2023-02-15T13:35:34;17.42;;;10.90;;
15595;SDS011;7898;48.658;9.068;2023-02-15T13:38:07;14.95;;;10.60;;
15595;SDS011;7898;48.658;9.068;2023-02-15T13:40:45;16.02;;;9.95;;
15595;SDS011;7898;48.658;9.068;2023-02-15T13:43:23;14.48;;;10.57;;
15595;SDS011;7898;48.658;9.068;2023-02-15T13:46:07;14.10;;;11.07;;
15595;SDS011;7898;48.658;9.068;2023-02-15T13:48:47;15.07;;;10.60;;
15595;SDS011;7898;48.658;9.068;2023-02-15T13:51:24;16.10;;;11.48;;
15595;SDS011;7898;48.658;9.068;2023-02-15T13:54:17;14.52;;;10.88;;
15595;SDS011;7898;48.658;9.068;2023-02-15T13:56:59;16.30;;;11.35;;
15595;SDS011;7898;48.658;9.068;2023-02-15T13:59:46;15.40;;;10.75;;
15595;SDS011;7898;48.658;9.068;2023-02-15T14:02:30;16.42;;;11.60;;
15595;SDS011;7898;48.658;9.068;2023-02-15T14:05:14;16.35;;;11.38;;
15595;SDS011;7898;48.658;9.068;2023-02-15T14:07:54;18.38;;;11.63;;
15595;SDS011;7898;48.658;9.068;2023-02-15T14:10:43;19.98;;;11.68;;
15595;SDS011;7898;48.658;9.068;2023-02-15T14:16:24;16.90;;;11.73;;
15595;SDS011;7898;48.658;9.068;2023-02-15T14:19:01;19.95;;;11.15;;
15595;SDS011;7898;48.658;9.068;2023-02-15T14:21:38;15.10;;;10.93;;
15595;SDS011;7898;48.658;9.068;2023-02-15T14:24:17;14.70;;;11.70;;
15595;SDS011;7898;48.658;9.068;2023-02-15T14:26:55;18.77;;;12.18;;
15595;SDS011;7898;48.658;9.068;2023-02-15T14:29:36;15.93;;;11.63;;
15595;SDS011;7898;48.658;9.068;2023-02-15T14:32:13;17.13;;;11.93;;
15595;SDS011;7898;48.658;9.068;2023-02-15T14:34:46;20.63;;;11.68;;
15595;SDS011;7898;48.658;9.068;2023-02-15T14:37:18;16.92;;;11.70;;
15595;SDS011;7898;48.658;9.068;2023-02-15T14:39:55;18.50;;;12.43;;
15595;SDS011;7898;48.658;9.068;2023-02-15T14:42:43;19.10;;;12.88;;
15595;SDS011;7898;48.658;9.068;2023-02-15T14:45:18;19.98;;;11.60;;
15595;SDS011;7898;48.658;9.068;2023-02-15T14:47:51;17.08;;;12.52;;
15595;SDS011;7898;48.658;9.068;2023-02-15T14:50:40;18.77;;;12.48;;
15595;SDS011;7898;48.658;9.068;2023-02-15T14:53:17;16.63;;;13.30;;
15595;SDS011;7898;48.658;9.068;2023-02-15T14:56:18;18.60;;;13.75;;
15595;SDS011;7898;48.658;9.068;2023-02-15T15:01:53;18.65;;;11.85;;
15595;SDS011;7898;48.658;9.068;2023-02-15T15:04:28;13.52;;;9.82;;
15595;SDS011;7898;48.658;9.068;2023-02-15T15:06:59;20.10;;;10.70;;
15595;SDS011;7898;48.658;9.068;2023-02-15T15:09:29;13.68;;;10.07;;
15595;SDS011;7898;48.658;9.068;2023-02-15T15:12:13;12.52;;;8.98;;
15595;SDS011;7898;48.658;9.068;2023-02-15T15:15:01;15.95;;;9.25;;
15595;SDS011;7898;48.658;9.068;2023-02-15T15:20:37;11.02;;;7.63;;
15595;SDS011;7898;48.658;9.068;2023-02-15T15:26:28;8.63;;;7.18;;
15595;SDS011;7898;48.658;9.068;2023-02-15T15:29:03;10.88;;;7.53;;
15595;SDS011;7898;48.658;9.068;2023-02-15T15:31:32;7.97;;;7.07;;
15595;SDS011;7898;48.658;9.068;2023-02-15T15:34:17;13.02;;;8.38;;
15595;SDS011;7898;48.658;9.068;2023-02-15T15:42:48;11.57;;;7.72;;